Time,TemperatureF,DewpointF,PressureIn,WindDirection,WindDirectionDegrees,WindSpeedMPH,WindSpeedGustMPH,Humidity,HourlyPrecipIn,Conditions,Clouds,dailyrainin,SoftwareType,DateUTC
2013-05-11 00:02:00,50.0,27.0,-100.00,West,280,0.0,0.0,41,-99.99,,,-99.99,,2013-05-11 05:02:00,
2013-05-11 00:32:00,50.0,28.0,-100.00,West,275,0.0,0.0,42,-99.99,,,-99.99,,2013-05-11 05:32:00,
2013-05-11 00:42:00,50.0,28.0,-100.00,West,275,0.0,0.0,42,-99.99,,,-99.99,,2013-05-11 05:42:00,
2013-05-11 00:52:00,50.0,28.0,-100.00,West,275,0.0,0.0,42,-99.99,,,-99.99,,2013-05-11 05:52:00,
2013-05-11 01:02:00,50.0,28.0,-100.00,West,275,0.0,0.0,42,-99.99,,,-99.99,,2013-05-11 06:02:00,
2013-05-11 01:12:00,50.0,28.0,-100.00,West,275,0.0,0.0,42,-99.99,,,-99.99,,2013-05-11 06:12:00,
2013-05-11 01:32:00,49.0,30.0,-100.00,WNW,285,0.0,0.0,48,-99.99,,,-99.99,,2013-05-11 06:32:00,
2013-05-11 01:42:00,49.0,30.0,-100.00,WNW,285,0.0,0.0,48,-99.99,,,-99.99,,2013-05-11 06:42:00,
2013-05-11 01:52:00,49.0,30.0,-100.00,WNW,285,0.0,0.0,48,-99.99,,,-99.99,,2013-05-11 06:52:00,
2013-05-11 02:02:00,49.0,30.0,-100.00,WNW,285,0.0,0.0,48,-99.99,,,-99.99,,2013-05-11 07:02:00,
2013-05-11 02:11:00,49.0,30.0,-100.00,WNW,285,0.0,0.0,48,-99.99,,,-99.99,,2013-05-11 07:11:00,
2013-05-11 02:12:00,50.0,29.0,-100.00,WNW,295,0.0,0.0,44,-99.99,,,-99.99,,2013-05-11 07:12:00,
2013-05-11 02:32:00,50.0,29.0,-100.00,WNW,295,0.0,0.0,44,-99.99,,,-99.99,,2013-05-11 07:32:00,
2013-05-11 02:42:00,50.0,29.0,-100.00,WNW,295,0.0,0.0,44,-99.99,,,-99.99,,2013-05-11 07:42:00,
2013-05-11 02:52:00,50.0,29.0,-100.00,WNW,295,0.0,0.0,44,-99.99,,,-99.99,,2013-05-11 07:52:00,
2013-05-11 03:01:00,50.0,29.0,-100.00,WNW,295,0.0,0.0,44,-99.99,,,-99.99,,2013-05-11 08:01:00,
2013-05-11 03:32:00,51.0,31.0,-100.00,WSW,245,0.0,0.0,46,-99.99,,,-99.99,,2013-05-11 08:32:00,
2013-05-11 03:43:00,51.0,31.0,-100.00,WSW,245,0.0,0.0,46,-99.99,,,-99.99,,2013-05-11 08:43:00,
2013-05-11 03:52:00,51.0,31.0,-100.00,WSW,245,0.0,0.0,46,-99.99,,,-99.99,,2013-05-11 08:52:00,
2013-05-11 04:01:00,51.0,31.0,-100.00,WSW,245,0.0,0.0,46,-99.99,,,-99.99,,2013-05-11 09:01:00,
2013-05-11 04:11:00,51.0,31.0,-100.00,WSW,245,0.0,0.0,46,-99.99,,,-99.99,,2013-05-11 09:11:00,
2013-05-11 04:33:00,50.0,34.0,-100.00,WSW,250,0.0,0.0,54,-99.99,,,-99.99,,2013-05-11 09:33:00,
2013-05-11 04:42:00,50.0,34.0,-100.00,WSW,250,0.0,0.0,54,-99.99,,,-99.99,,2013-05-11 09:42:00,
2013-05-11 04:52:00,50.0,34.0,-100.00,WSW,250,0.0,0.0,54,-99.99,,,-99.99,,2013-05-11 09:52:00,
2013-05-11 05:03:00,50.0,34.0,-100.00,WSW,250,0.0,0.0,54,-99.99,,,-99.99,,2013-05-11 10:03:00,
2013-05-11 05:12:00,50.0,34.0,-100.00,WSW,250,0.0,0.0,54,-99.99,,,-99.99,,2013-05-11 10:12:00,
2013-05-11 05:33:00,49.0,40.0,-100.00,West,275,0.0,0.0,73,-99.99,,,-99.99,,2013-05-11 10:33:00,
2013-05-11 05:42:00,49.0,40.0,-100.00,West,275,0.0,0.0,73,-99.99,,,-99.99,,2013-05-11 10:42:00,
2013-05-11 05:52:00,49.0,40.0,-100.00,West,275,0.0,0.0,73,-99.99,,,-99.99,,2013-05-11 10:52:00,
2013-05-11 06:02:00,49.0,40.0,-100.00,West,275,0.0,0.0,73,-99.99,,,-99.99,,2013-05-11 11:02:00,
2013-05-11 06:11:00,49.0,40.0,-100.00,West,275,0.0,0.0,73,-99.99,,,-99.99,,2013-05-11 11:11:00,
2013-05-11 06:32:00,43.0,34.0,-100.00,NNW,335,0.0,0.0,72,-99.99,,,-99.99,,2013-05-11 11:32:00,
2013-05-11 06:42:00,43.0,34.0,-100.00,NNW,335,0.0,0.0,72,-99.99,,,-99.99,,2013-05-11 11:42:00,
2013-05-11 06:52:00,43.0,34.0,-100.00,NNW,335,0.0,0.0,72,-99.99,,,-99.99,,2013-05-11 11:52:00,
2013-05-11 07:01:00,43.0,34.0,-100.00,NNW,335,0.0,0.0,72,-99.99,,,-99.99,,2013-05-11 12:01:00,
2013-05-11 07:11:00,43.0,34.0,-100.00,NNW,335,0.0,0.0,72,-99.99,,,-99.99,,2013-05-11 12:11:00,
2013-05-11 07:32:00,40.0,36.0,-100.00,NNW,335,0.0,0.0,87,-99.99,,,-99.99,,2013-05-11 12:32:00,
2013-05-11 07:42:00,40.0,36.0,-100.00,NNW,335,0.0,0.0,87,-99.99,,,-99.99,,2013-05-11 12:42:00,
2013-05-11 07:52:00,40.0,36.0,-100.00,NNW,335,0.0,0.0,87,-99.99,,,-99.99,,2013-05-11 12:52:00,
2013-05-11 08:01:00,40.0,36.0,-100.00,NNW,335,0.0,0.0,87,-99.99,,,-99.99,,2013-05-11 13:01:00,
2013-05-11 08:11:00,40.0,36.0,-100.00,NNW,335,0.0,0.0,87,-99.99,,,-99.99,,2013-05-11 13:11:00,
2013-05-11 08:32:00,39.0,32.0,-100.00,NW,325,0.0,1.0,76,-99.99,,,-99.99,,2013-05-11 13:32:00,
2013-05-11 08:42:00,39.0,32.0,-100.00,NW,325,0.0,1.0,76,-99.99,,,-99.99,,2013-05-11 13:42:00,
2013-05-11 08:52:00,39.0,32.0,-100.00,NW,325,0.0,1.0,76,-99.99,,,-99.99,,2013-05-11 13:52:00,
2013-05-11 09:02:00,39.0,32.0,-100.00,NW,325,0.0,1.0,76,-99.99,,,-99.99,,2013-05-11 14:02:00,
2013-05-11 09:11:00,39.0,32.0,-100.00,NW,325,0.0,1.0,76,-99.99,,,-99.99,,2013-05-11 14:11:00,
2013-05-11 09:32:00,39.0,29.0,-100.00,NNW,330,0.0,1.0,67,-99.99,,,-99.99,,2013-05-11 14:32:00,
2013-05-11 09:42:00,39.0,29.0,-100.00,NNW,330,0.0,1.0,67,-99.99,,,-99.99,,2013-05-11 14:42:00,
2013-05-11 09:52:00,39.0,29.0,-100.00,NNW,330,0.0,1.0,67,-99.99,,,-99.99,,2013-05-11 14:52:00,
2013-05-11 10:01:00,39.0,29.0,-100.00,NNW,330,0.0,1.0,67,-99.99,,,-99.99,,2013-05-11 15:01:00,
2013-05-11 10:11:00,39.0,29.0,-100.00,NNW,330,0.0,1.0,67,-99.99,,,-99.99,,2013-05-11 15:11:00,
2013-05-11 10:12:00,42.0,29.0,-100.00,NW,320,0.0,1.0,59,-99.99,,,-99.99,,2013-05-11 15:12:00,
2013-05-11 10:32:00,42.0,29.0,-100.00,NW,320,0.0,1.0,59,-99.99,,,-99.99,,2013-05-11 15:32:00,
2013-05-11 10:43:00,42.0,29.0,-100.00,NW,320,0.0,1.0,59,-99.99,,,-99.99,,2013-05-11 15:43:00,
2013-05-11 10:53:00,42.0,29.0,-100.00,NW,320,0.0,1.0,59,-99.99,,,-99.99,,2013-05-11 15:53:00,
2013-05-11 11:02:00,42.0,29.0,-100.00,NW,320,0.0,1.0,59,-99.99,,,-99.99,,2013-05-11 16:02:00,
2013-05-11 11:33:00,43.0,27.0,-100.00,NW,310,0.0,1.0,52,-99.99,,,-99.99,,2013-05-11 16:33:00,
2013-05-11 11:42:00,43.0,27.0,-100.00,NW,310,0.0,1.0,52,-99.99,,,-99.99,,2013-05-11 16:42:00,
2013-05-11 11:53:00,43.0,27.0,-100.00,NW,310,0.0,1.0,52,-99.99,,,-99.99,,2013-05-11 16:53:00,
2013-05-11 12:02:00,43.0,27.0,-100.00,NW,310,0.0,1.0,52,-99.99,,,-99.99,,2013-05-11 17:02:00,
2013-05-11 12:12:00,43.0,27.0,-100.00,NW,310,0.0,1.0,52,-99.99,,,-99.99,,2013-05-11 17:12:00,
2013-05-11 12:32:00,44.0,26.0,-100.00,NW,320,0.0,1.0,50,-99.99,,,-99.99,,2013-05-11 17:32:00,
2013-05-11 12:42:00,44.0,26.0,-100.00,NW,320,0.0,1.0,50,-99.99,,,-99.99,,2013-05-11 17:42:00,
2013-05-11 12:52:00,44.0,26.0,-100.00,NW,320,0.0,1.0,50,-99.99,,,-99.99,,2013-05-11 17:52:00,
2013-05-11 13:01:00,44.0,26.0,-100.00,NW,320,0.0,1.0,50,-99.99,,,-99.99,,2013-05-11 18:01:00,
2013-05-11 13:11:00,44.0,26.0,-100.00,NW,320,0.0,1.0,50,-99.99,,,-99.99,,2013-05-11 18:11:00,
2013-05-11 13:32:00,44.0,26.0,-100.00,NW,325,0.0,1.0,50,-99.99,,,-99.99,,2013-05-11 18:32:00,
2013-05-11 13:42:00,44.0,26.0,-100.00,NW,325,0.0,1.0,50,-99.99,,,-99.99,,2013-05-11 18:42:00,
2013-05-11 13:52:00,44.0,26.0,-100.00,NW,325,0.0,1.0,50,-99.99,,,-99.99,,2013-05-11 18:52:00,
2013-05-11 14:02:00,44.0,26.0,-100.00,NW,325,0.0,1.0,50,-99.99,,,-99.99,,2013-05-11 19:02:00,
2013-05-11 14:11:00,44.0,26.0,-100.00,NW,325,0.0,1.0,50,-99.99,,,-99.99,,2013-05-11 19:11:00,
2013-05-11 14:32:00,44.0,25.0,-100.00,NNW,335,0.0,1.0,47,-99.99,,,-99.99,,2013-05-11 19:32:00,
2013-05-11 14:42:00,44.0,25.0,-100.00,NNW,335,0.0,1.0,47,-99.99,,,-99.99,,2013-05-11 19:42:00,
2013-05-11 14:53:00,44.0,25.0,-100.00,NNW,335,0.0,1.0,47,-99.99,,,-99.99,,2013-05-11 19:53:00,
2013-05-11 15:02:00,44.0,25.0,-100.00,NNW,335,0.0,1.0,47,-99.99,,,-99.99,,2013-05-11 20:02:00,
2013-05-11 15:12:00,44.0,25.0,-100.00,NNW,335,0.0,1.0,47,-99.99,,,-99.99,,2013-05-11 20:12:00,
2013-05-11 15:32:00,44.0,22.0,-100.00,NNW,330,0.0,1.0,42,-99.99,,,-99.99,,2013-05-11 20:32:00,
2013-05-11 15:42:00,44.0,22.0,-100.00,NNW,330,0.0,1.0,42,-99.99,,,-99.99,,2013-05-11 20:42:00,
2013-05-11 15:52:00,44.0,22.0,-100.00,NNW,330,0.0,1.0,42,-99.99,,,-99.99,,2013-05-11 20:52:00,
2013-05-11 16:02:00,44.0,22.0,-100.00,NNW,330,0.0,1.0,42,-99.99,,,-99.99,,2013-05-11 21:02:00,
2013-05-11 16:11:00,44.0,22.0,-100.00,NNW,330,0.0,1.0,42,-99.99,,,-99.99,,2013-05-11 21:11:00,
2013-05-11 16:12:00,44.0,24.0,-100.00,NW,320,0.0,1.0,46,-99.99,,,-99.99,,2013-05-11 21:12:00,
2013-05-11 16:33:00,44.0,24.0,-100.00,NW,320,0.0,1.0,46,-99.99,,,-99.99,,2013-05-11 21:33:00,
2013-05-11 16:43:00,44.0,24.0,-100.00,NW,320,0.0,1.0,46,-99.99,,,-99.99,,2013-05-11 21:43:00,
2013-05-11 16:53:00,44.0,24.0,-100.00,NW,320,0.0,1.0,46,-99.99,,,-99.99,,2013-05-11 21:53:00,
2013-05-11 17:02:00,44.0,24.0,-100.00,NW,320,0.0,1.0,46,-99.99,,,-99.99,,2013-05-11 22:02:00,
2013-05-11 17:12:00,44.0,22.0,-100.00,WNW,300,0.0,0.0,42,-99.99,,,-99.99,,2013-05-11 22:12:00,
2013-05-11 17:33:00,44.0,22.0,-100.00,WNW,300,0.0,0.0,42,-99.99,,,-99.99,,2013-05-11 22:33:00,
2013-05-11 17:43:00,44.0,22.0,-100.00,WNW,300,0.0,0.0,42,-99.99,,,-99.99,,2013-05-11 22:43:00,
2013-05-11 17:52:00,44.0,22.0,-100.00,WNW,300,0.0,0.0,42,-99.99,,,-99.99,,2013-05-11 22:52:00,
2013-05-11 18:02:00,44.0,22.0,-100.00,WNW,300,0.0,0.0,42,-99.99,,,-99.99,,2013-05-11 23:02:00,
2013-05-11 18:32:00,43.0,26.0,-100.00,NW,320,0.0,1.0,52,-99.99,,,-99.99,,2013-05-11 23:32:00,
2013-05-11 18:42:00,43.0,26.0,-100.00,NW,320,0.0,1.0,52,-99.99,,,-99.99,,2013-05-11 23:42:00,
2013-05-11 18:52:00,43.0,26.0,-100.00,NW,320,0.0,1.0,52,-99.99,,,-99.99,,2013-05-11 23:52:00,
2013-05-11 19:01:00,43.0,26.0,-100.00,NW,320,0.0,1.0,52,-99.99,,,-99.99,,2013-05-12 00:01:00,
2013-05-11 19:11:00,43.0,26.0,-100.00,NW,320,0.0,1.0,52,-99.99,,,-99.99,,2013-05-12 00:11:00,
2013-05-11 19:32:00,41.0,28.0,-100.00,NW,325,0.0,1.0,58,-99.99,,,-99.99,,2013-05-12 00:32:00,
2013-05-11 19:42:00,41.0,28.0,-100.00,NW,325,0.0,1.0,58,-99.99,,,-99.99,,2013-05-12 00:42:00,
2013-05-11 19:52:00,41.0,28.0,-100.00,NW,325,0.0,1.0,58,-99.99,,,-99.99,,2013-05-12 00:52:00,
2013-05-11 20:01:00,41.0,28.0,-100.00,NW,325,0.0,1.0,58,-99.99,,,-99.99,,2013-05-12 01:01:00,
2013-05-11 20:11:00,41.0,28.0,-100.00,NW,325,0.0,1.0,58,-99.99,,,-99.99,,2013-05-12 01:11:00,
2013-05-11 20:32:00,36.0,33.0,-100.00,NW,315,0.0,0.0,91,-99.99,,,-99.99,,2013-05-12 01:32:00,
2013-05-11 20:42:00,36.0,33.0,-100.00,NW,315,0.0,0.0,91,-99.99,,,-99.99,,2013-05-12 01:42:00,
2013-05-11 20:52:00,36.0,33.0,-100.00,NW,315,0.0,0.0,91,-99.99,,,-99.99,,2013-05-12 01:52:00,
2013-05-11 21:01:00,36.0,33.0,-100.00,NW,315,0.0,0.0,91,-99.99,,,-99.99,,2013-05-12 02:01:00,
2013-05-11 21:11:00,36.0,33.0,-100.00,NW,315,0.0,0.0,91,-99.99,,,-99.99,,2013-05-12 02:11:00,
2013-05-11 21:32:00,36.0,32.0,-100.00,NW,325,0.0,0.0,84,-99.99,,,-99.99,,2013-05-12 02:32:00,
2013-05-11 21:42:00,36.0,32.0,-100.00,NW,325,0.0,0.0,84,-99.99,,,-99.99,,2013-05-12 02:42:00,
2013-05-11 21:52:00,36.0,32.0,-100.00,NW,325,0.0,0.0,84,-99.99,,,-99.99,,2013-05-12 02:52:00,
2013-05-11 22:01:00,36.0,32.0,-100.00,NW,325,0.0,0.0,84,-99.99,,,-99.99,,2013-05-12 03:01:00,
2013-05-11 22:11:00,36.0,32.0,-100.00,NW,325,0.0,0.0,84,-99.99,,,-99.99,,2013-05-12 03:11:00,
2013-05-11 22:33:00,36.0,33.0,-100.00,NW,320,0.0,0.0,88,-99.99,,,-99.99,,2013-05-12 03:33:00,
2013-05-11 22:43:00,36.0,33.0,-100.00,NW,320,0.0,0.0,88,-99.99,,,-99.99,,2013-05-12 03:43:00,
2013-05-11 22:53:00,36.0,33.0,-100.00,NW,320,0.0,0.0,88,-99.99,,,-99.99,,2013-05-12 03:53:00,
2013-05-11 23:02:00,-999.0,-99.9,-100.00,NW,320,0.0,0.0,88,-99.99,,,-99.99,,2013-05-12 04:02:00,
2013-05-11 23:12:00,36.0,33.0,-100.00,NW,320,0.0,0.0,88,-99.99,,,-99.99,,2013-05-12 04:12:00,
2013-05-11 23:33:00,36.0,32.0,-100.00,NNW,335,0.0,0.0,82,-99.99,,,-99.99,,2013-05-12 04:33:00,
2013-05-11 23:43:00,36.0,32.0,-100.00,NNW,335,0.0,0.0,82,-99.99,,,-99.99,,2013-05-12 04:43:00,
2013-05-11 23:52:00,36.0,32.0,-100.00,NNW,335,0.0,0.0,82,-99.99,,,-99.99,,2013-05-12 04:52:00,